• Join FlightAware (Why Join?)
  • Login
  • US Flag 
Gobble Gobble! 
07:18AM EST


 

Airport Tracker/Info


-or-


 

Live Flight TrackerFlight Track Log ✈ DAL222 ✈ 17-Nov-2013 ✈ SBBR / BSB - KATL

Flight Track Log - Related Links

Times and Time Zones

All times are in EST time to prevent confusion due to time zone crossing. See the DAL222 flight status page for this flight to view local times or setup timezone preferences in your user account.

Time Position Orientation Groundspeed Altitude Reporting Facility
EST Latitude Longitude Course Direction KTS MPH feet Rate Location/Type
08:59PM -15.7628 -47.9856 325° Northwest  Level FlightAware Approximate
09:00PM -15.6630 -48.0584 325° Northwest  Level FlightAware Approximate
09:01PM -15.5632 -48.1312 325° Northwest  Level FlightAware Approximate
09:02PM -15.4633 -48.2039 325° Northwest  Level FlightAware Approximate
09:03PM -15.3635 -48.2766 325° Northwest  Level FlightAware Approximate
09:04PM -15.2636 -48.3491 325° Northwest  Level FlightAware Approximate
09:05PM -15.1637 -48.4216 325° Northwest  Level FlightAware Approximate
09:06PM -15.0637 -48.4941 325° Northwest  Level FlightAware Approximate
09:07PM -14.9638 -48.5665 325° Northwest  Level FlightAware Approximate
09:08PM -14.8638 -48.6388 325° Northwest  Level FlightAware Approximate
09:09PM -14.7638 -48.7110 325° Northwest  Level FlightAware Approximate
09:10PM -14.6637 -48.7832 325° Northwest  Level FlightAware Approximate
09:11PM -14.5637 -48.8553 325° Northwest  Level FlightAware Approximate
09:12PM -14.4636 -48.9273 325° Northwest  Level FlightAware Approximate
09:13PM -14.3635 -48.9993 325° Northwest  Level FlightAware Approximate
09:14PM -14.2634 -49.0712 325° Northwest  Level FlightAware Approximate
09:15PM -14.1643 -49.1425 325° Northwest  Level FlightAware Approximate
09:16PM -14.0644 -49.2147 325° Northwest  Level FlightAware Approximate
09:17PM -13.9645 -49.2869 325° Northwest  Level FlightAware Approximate
09:18PM -13.8646 -49.3590 325° Northwest  Level FlightAware Approximate
09:19PM -13.7647 -49.4310 325° Northwest  Level FlightAware Approximate
09:20PM -13.6647 -49.5029 325° Northwest  Level FlightAware Approximate
09:21PM -13.5648 -49.5748 325° Northwest  Level FlightAware Approximate
09:22PM -13.4648 -49.6467 325° Northwest  Level FlightAware Approximate
09:23PM -13.3648 -49.7185 325° Northwest  Level FlightAware Approximate
09:24PM -13.2647 -49.7902 325° Northwest  Level FlightAware Approximate
09:25PM -13.1647 -49.8618 325° Northwest  Level FlightAware Approximate
09:26PM -13.0646 -49.9334 325° Northwest  Level FlightAware Approximate
09:27PM -12.9645 -50.0050 325° Northwest  Level FlightAware Approximate
09:28PM -12.8644 -50.0765 325° Northwest  Level FlightAware Approximate
09:29PM -12.7643 -50.1479 325° Northwest  Level FlightAware Approximate
09:30PM -12.6641 -50.2193 325° Northwest  Level FlightAware Approximate
09:31PM -12.5640 -50.2906 325° Northwest  Level FlightAware Approximate
09:32PM -12.4638 -50.3619 325° Northwest  Level FlightAware Approximate
09:33PM -12.3636 -50.4331 325° Northwest  Level FlightAware Approximate
09:34PM -12.2633 -50.5042 325° Northwest  Level FlightAware Approximate
09:35PM -12.1631 -50.5753 325° Northwest  Level FlightAware Approximate
09:36PM -12.0628 -50.6464 325° Northwest  Level FlightAware Approximate
09:37PM -11.9626 -50.7174 325° Northwest  Level FlightAware Approximate
09:38PM -11.8623 -50.7883 325° Northwest  Level FlightAware Approximate
09:39PM -11.7619 -50.8592 325° Northwest  Level FlightAware Approximate
09:40PM -11.6616 -50.9300 325° Northwest  Level FlightAware Approximate
09:41PM -11.5612 -51.0008 325° Northwest  Level FlightAware Approximate
09:42PM -11.4609 -51.0716 325° Northwest  Level FlightAware Approximate
09:43PM -11.3605 -51.1423 325° Northwest  Level FlightAware Approximate
09:44PM -11.2601 -51.2129 325° Northwest  Level FlightAware Approximate
09:45PM -11.1597 -51.2835 325° Northwest  Level FlightAware Approximate
09:46PM -11.0592 -51.3540 325° Northwest  Level FlightAware Approximate
09:47PM -10.9588 -51.4245 325° Northwest  Level FlightAware Approximate
09:48PM -10.8583 -51.4949 325° Northwest  Level FlightAware Approximate
09:49PM -10.7578 -51.5653 325° Northwest  Level FlightAware Approximate
09:50PM -10.6573 -51.6357 325° Northwest  Level FlightAware Approximate
09:51PM -10.5568 -51.7060 325° Northwest  Level FlightAware Approximate
09:52PM -10.4563 -51.7762 326° Northwest  Level FlightAware Approximate
09:53PM -10.3557 -51.8465 326° Northwest  Level FlightAware Approximate
09:54PM -10.2552 -51.9166 326° Northwest  Level FlightAware Approximate
09:55PM -10.1546 -51.9867 326° Northwest  Level FlightAware Approximate
09:56PM -10.0540 -52.0568 326° Northwest  Level FlightAware Approximate
09:57PM -9.9534 -52.1268 326° Northwest  Level FlightAware Approximate
09:58PM -9.8528 -52.1968 326° Northwest  Level FlightAware Approximate
09:59PM -9.7521 -52.2668 326° Northwest  Level FlightAware Approximate
10:00PM -9.6515 -52.3367 326° Northwest  Level FlightAware Approximate
10:01PM -9.5508 -52.4065 326° Northwest  Level FlightAware Approximate
10:02PM -9.4501 -52.4764 326° Northwest  Level FlightAware Approximate
10:03PM -9.3495 -52.5461 326° Northwest  Level FlightAware Approximate
10:04PM -9.2487 -52.6159 326° Northwest  Level FlightAware Approximate
10:05PM -9.1480 -52.6856 326° Northwest  Level FlightAware Approximate
10:06PM -9.0473 -52.7552 326° Northwest  Level FlightAware Approximate
10:07PM -8.9465 -52.8249 326° Northwest  Level FlightAware Approximate
10:08PM -8.8458 -52.8944 326° Northwest  Level FlightAware Approximate
10:09PM -8.7450 -52.9640 326° Northwest  Level FlightAware Approximate
10:10PM -8.6442 -53.0335 326° Northwest  Level FlightAware Approximate
10:11PM -8.5434 -53.1030 326° Northwest  Level FlightAware Approximate
10:12PM -8.4426 -53.1724 326° Northwest  Level FlightAware Approximate
10:13PM -8.3418 -53.2418 326° Northwest  Level FlightAware Approximate
10:14PM -8.2410 -53.3111 326° Northwest  Level FlightAware Approximate
10:15PM -8.1401 -53.3805 326° Northwest  Level FlightAware Approximate
10:16PM -8.0393 -53.4498 326° Northwest  Level FlightAware Approximate
10:17PM -7.9384 -53.5190 326° Northwest  Level FlightAware Approximate
10:18PM -7.8375 -53.5882 326° Northwest  Level FlightAware Approximate
10:19PM -7.7366 -53.6574 326° Northwest  Level FlightAware Approximate
10:20PM -7.6357 -53.7266 326° Northwest  Level FlightAware Approximate
10:21PM -7.5348 -53.7957 326° Northwest  Level FlightAware Approximate
10:22PM -7.4339 -53.8648 326° Northwest  Level FlightAware Approximate
10:23PM -7.3330 -53.9339 326° Northwest  Level FlightAware Approximate
10:24PM -7.2320 -54.0029 326° Northwest  Level FlightAware Approximate
10:25PM -7.1311 -54.0719 326° Northwest  Level FlightAware Approximate
10:26PM -7.0301 -54.1409 326° Northwest  Level FlightAware Approximate
10:27PM -6.9291 -54.2098 326° Northwest  Level FlightAware Approximate
10:28PM -6.8281 -54.2787 326° Northwest  Level FlightAware Approximate
10:29PM -6.7271 -54.3476 326° Northwest  Level FlightAware Approximate
10:30PM -6.6261 -54.4165 326° Northwest  Level FlightAware Approximate
10:31PM -6.5251 -54.4853 326° Northwest  Level FlightAware Approximate
10:32PM -6.4241 -54.5541 326° Northwest  Level FlightAware Approximate
10:33PM -6.3231 -54.6228 326° Northwest  Level FlightAware Approximate
10:34PM -6.2220 -54.6916 326° Northwest  Level FlightAware Approximate
10:35PM -6.1210 -54.7603 326° Northwest  Level FlightAware Approximate
10:36PM -6.0199 -54.8290 326° Northwest  Level FlightAware Approximate
10:37PM -5.9188 -54.8976 326° Northwest  Level FlightAware Approximate
10:38PM -5.8177 -54.9663 326° Northwest  Level FlightAware Approximate
10:39PM -5.7167 -55.0349 326° Northwest  Level FlightAware Approximate
10:40PM -5.6156 -55.1035 326° Northwest  Level FlightAware Approximate
10:41PM -5.5145 -55.1720 326° Northwest  Level FlightAware Approximate
10:42PM -5.4134 -55.2406 326° Northwest  Level FlightAware Approximate
10:43PM -5.3122 -55.3091 326° Northwest  Level FlightAware Approximate
10:44PM -5.2111 -55.3776 326° Northwest  Level FlightAware Approximate
10:45PM -5.1100 -55.4460 326° Northwest  Level FlightAware Approximate
10:46PM -5.0089 -55.5145 326° Northwest  Level FlightAware Approximate
10:47PM -4.9077 -55.5829 326° Northwest  Level FlightAware Approximate
10:48PM -4.8066 -55.6513 326° Northwest  Level FlightAware Approximate
10:49PM -4.7066 -55.7189 326° Northwest  Level FlightAware Approximate
10:50PM -4.6066 -55.7865 326° Northwest  Level FlightAware Approximate
10:51PM -4.5066 -55.8540 326° Northwest  Level FlightAware Approximate
10:52PM -4.4066 -55.9216 326° Northwest  Level FlightAware Approximate
10:53PM -4.3066 -55.9891 326° Northwest  Level FlightAware Approximate
10:54PM -4.2066 -56.0566 326° Northwest  Level FlightAware Approximate
10:55PM -4.1066 -56.1241 326° Northwest  Level FlightAware Approximate
10:56PM -4.0066 -56.1915 326° Northwest  Level FlightAware Approximate
10:57PM -3.9066 -56.2590 326° Northwest  Level FlightAware Approximate
10:58PM -3.8065 -56.3264 326° Northwest  Level FlightAware Approximate
10:59PM -3.7065 -56.3938 326° Northwest  Level FlightAware Approximate
11:00PM -3.6065 -56.4612 326° Northwest  Level FlightAware Approximate
11:01PM -3.5064 -56.5286 326° Northwest  Level FlightAware Approximate
11:02PM -3.4064 -56.5960 326° Northwest  Level FlightAware Approximate
11:03PM -3.3063 -56.6633 326° Northwest  Level FlightAware Approximate
11:04PM -3.2063 -56.7306 326° Northwest  Level FlightAware Approximate
11:05PM -3.1062 -56.7980 326° Northwest  Level FlightAware Approximate
11:06PM -3.0061 -56.8653 326° Northwest  Level FlightAware Approximate
11:07PM -2.9061 -56.9326 326° Northwest  Level FlightAware Approximate
11:08PM -2.8060 -56.9999 326° Northwest  Level FlightAware Approximate
11:09PM -2.7059 -57.0672 326° Northwest  Level FlightAware Approximate
11:10PM -2.6058 -57.1344 326° Northwest  Level FlightAware Approximate
11:11PM -2.5057 -57.2017 326° Northwest  Level FlightAware Approximate
11:12PM -2.4056 -57.2689 326° Northwest  Level FlightAware Approximate
11:13PM -2.3056 -57.3362 326° Northwest  Level FlightAware Approximate
11:14PM -2.2055 -57.4034 326° Northwest  Level FlightAware Approximate
11:15PM -2.1054 -57.4706 326° Northwest  Level FlightAware Approximate
11:16PM -2.0053 -57.5378 326° Northwest  Level FlightAware Approximate
11:17PM -1.9052 -57.6050 326° Northwest  Level FlightAware Approximate
11:18PM -1.8051 -57.6722 326° Northwest  Level FlightAware Approximate
11:19PM -1.7049 -57.7394 326° Northwest  Level FlightAware Approximate
11:20PM -1.6048 -57.8066 326° Northwest  Level FlightAware Approximate
11:21PM -1.5047 -57.8738 326° Northwest  Level FlightAware Approximate
11:22PM -1.4046 -57.9409 326° Northwest  Level FlightAware Approximate
11:23PM -1.3045 -58.0081 326° Northwest  Level FlightAware Approximate
11:24PM -1.2044 -58.0752 326° Northwest  Level FlightAware Approximate
11:25PM -1.1042 -58.1424 326° Northwest  Level FlightAware Approximate
11:26PM -1.0041 -58.2095 326° Northwest  Level FlightAware Approximate
11:27PM -0.9040 -58.2767 326° Northwest  Level FlightAware Approximate
11:28PM -0.8039 -58.3438 326° Northwest  Level FlightAware Approximate
11:29PM -0.7037 -58.4109 326° Northwest  Level FlightAware Approximate
11:30PM -0.6036 -58.4781 326° Northwest  Level FlightAware Approximate
11:31PM -0.5035 -58.5452 326° Northwest  Level FlightAware Approximate
11:32PM -0.4033 -58.6123 326° Northwest  Level FlightAware Approximate
11:33PM -0.3032 -58.6795 326° Northwest  Level FlightAware Approximate
11:34PM -0.2031 -58.7466 326° Northwest  Level FlightAware Approximate
11:35PM -0.1030 -58.8137 326° Northwest  Level FlightAware Approximate
11:36PM -0.0028 -58.8808 326° Northwest  Level FlightAware Approximate
11:37PM 0.0973 -58.9479 326° Northwest  Level FlightAware Approximate
11:38PM 0.1974 -59.0150 326° Northwest  Level FlightAware Approximate
11:39PM 0.2976 -59.0822 326° Northwest  Level FlightAware Approximate
11:40PM 0.3977 -59.1493 326° Northwest  Level FlightAware Approximate
11:41PM 0.4978 -59.2164 326° Northwest  Level FlightAware Approximate
11:42PM 0.5979 -59.2836 326° Northwest  Level FlightAware Approximate
11:43PM 0.6981 -59.3507 326° Northwest  Level FlightAware Approximate
11:44PM 0.7982 -59.4178 326° Northwest  Level FlightAware Approximate
11:45PM 0.8983 -59.4850 326° Northwest  Level FlightAware Approximate
11:46PM 0.9985 -59.5521 326° Northwest  Level FlightAware Approximate
11:47PM 1.0986 -59.6192 326° Northwest  Level FlightAware Approximate
11:48PM 1.1987 -59.6864 326° Northwest  Level FlightAware Approximate
11:49PM 1.2988 -59.7535 326° Northwest  Level FlightAware Approximate
11:50PM 1.3989 -59.8207 326° Northwest  Level FlightAware Approximate
11:51PM 1.4991 -59.8879 326° Northwest  Level FlightAware Approximate
11:52PM 1.5992 -59.9550 326° Northwest  Level FlightAware Approximate
11:53PM 1.6993 -60.0222 326° Northwest  Level FlightAware Approximate
11:54PM 1.7994 -60.0894 326° Northwest  Level FlightAware Approximate
11:55PM 1.8995 -60.1566 326° Northwest  Level FlightAware Approximate
11:56PM 1.9996 -60.2238 326° Northwest  Level FlightAware Approximate
11:57PM 2.0997 -60.2910 326° Northwest  Level FlightAware Approximate
11:58PM 2.1998 -60.3582 326° Northwest  Level FlightAware Approximate
11:59PM 2.2999 -60.4254 326° Northwest  Level FlightAware Approximate
12:00AM 2.4002 -60.4928 326° Northwest  Level FlightAware Approximate
12:01AM 2.5005 -60.5602 326° Northwest  Level FlightAware Approximate
12:02AM 2.6008 -60.6276 326° Northwest  Level FlightAware Approximate
12:03AM 2.7010 -60.6950 326° Northwest  Level FlightAware Approximate
12:04AM 2.8013 -60.7624 326° Northwest  Level FlightAware Approximate
12:05AM 2.9016 -60.8298 326° Northwest  Level FlightAware Approximate
12:06AM 3.0018 -60.8972 326° Northwest  Level FlightAware Approximate
12:07AM 3.1021 -60.9647 326° Northwest  Level FlightAware Approximate
12:08AM 3.2024 -61.0321 326° Northwest  Level FlightAware Approximate
12:09AM 3.3026 -61.0996 326° Northwest  Level FlightAware Approximate
12:10AM 3.4029 -61.1671 326° Northwest  Level FlightAware Approximate
12:11AM 3.5031 -61.2346 326° Northwest  Level FlightAware Approximate
12:12AM 3.6033 -61.3021 326° Northwest  Level FlightAware Approximate
12:13AM 3.7036 -61.3696 326° Northwest  Level FlightAware Approximate
12:14AM 3.8038 -61.4372 326° Northwest  Level FlightAware Approximate
12:15AM 3.9040 -61.5047 326° Northwest  Level FlightAware Approximate
12:16AM 4.0043 -61.5723 326° Northwest  Level FlightAware Approximate
12:17AM 4.1045 -61.6399 326° Northwest  Level FlightAware Approximate
12:18AM 4.2047 -61.7075 326° Northwest  Level FlightAware Approximate
12:19AM 4.3049 -61.7751 326° Northwest  Level FlightAware Approximate
12:20AM 4.4051 -61.8428 326° Northwest  Level FlightAware Approximate
12:21AM 4.5053 -61.9104 326° Northwest  Level FlightAware Approximate
12:22AM 4.6054 -61.9781 326° Northwest  Level FlightAware Approximate
12:23AM 4.7056 -62.0458 326° Northwest  Level FlightAware Approximate
12:24AM 4.8058 -62.1135 326° Northwest  Level FlightAware Approximate
12:25AM 4.9060 -62.1813 326° Northwest  Level FlightAware Approximate
12:26AM 5.0061 -62.2490 326° Northwest  Level FlightAware Approximate
12:27AM 5.1063 -62.3168 326° Northwest  Level FlightAware Approximate
12:28AM 5.2064 -62.3846 326° Northwest  Level FlightAware Approximate
12:29AM 5.3065 -62.4524 326° Northwest  Level FlightAware Approximate
12:30AM 5.4067 -62.5203 326° Northwest  Level FlightAware Approximate
12:31AM 5.5068 -62.5881 326° Northwest  Level FlightAware Approximate
12:32AM 5.6069 -62.6560 326° Northwest  Level FlightAware Approximate
12:33AM 5.7070 -62.7239 326° Northwest  Level FlightAware Approximate
12:34AM 5.8071 -62.7919 326° Northwest  Level FlightAware Approximate
12:35AM 5.9072 -62.8598 326° Northwest  Level FlightAware Approximate
12:36AM 6.0073 -62.9278 326° Northwest  Level FlightAware Approximate
12:37AM 6.1073 -62.9958 326° Northwest  Level FlightAware Approximate
12:38AM 6.2074 -63.0639 326° Northwest  Level FlightAware Approximate
12:39AM 6.3074 -63.1319 326° Northwest  Level FlightAware Approximate
12:40AM 6.4075 -63.2000 326° Northwest  Level FlightAware Approximate
12:41AM 6.5075 -63.2682 326° Northwest  Level FlightAware Approximate
12:42AM 6.6076 -63.3363 326° Northwest  Level FlightAware Approximate
12:43AM 6.7076 -63.4045 326° Northwest  Level FlightAware Approximate
12:44AM 6.8076 -63.4727 326° Northwest  Level FlightAware Approximate
12:45AM 6.9076 -63.5409 326° Northwest  Level FlightAware Approximate
12:46AM 7.0076 -63.6091 326° Northwest  Level FlightAware Approximate
12:47AM 7.1076 -63.6774 326° Northwest  Level FlightAware Approximate
12:48AM 7.2075 -63.7457 326° Northwest  Level FlightAware Approximate
12:49AM 7.3075 -63.8141 326° Northwest  Level FlightAware Approximate
12:50AM 7.4075 -63.8824 326° Northwest  Level FlightAware Approximate
12:51AM 7.5074 -63.9509 326° Northwest  Level FlightAware Approximate
12:52AM 7.6073 -64.0193 326° Northwest  Level FlightAware Approximate
12:53AM 7.7072 -64.0878 326° Northwest  Level FlightAware Approximate
12:54AM 7.8071 -64.1563 326° Northwest  Level FlightAware Approximate
12:55AM 7.9071 -64.2248 326° Northwest  Level FlightAware Approximate
12:56AM 8.0069 -64.2934 326° Northwest  Level FlightAware Approximate
12:57AM 8.1068 -64.3620 326° Northwest  Level FlightAware Approximate
12:58AM 8.2067 -64.4306 326° Northwest  Level FlightAware Approximate
12:59AM 8.3065 -64.4993 326° Northwest  Level FlightAware Approximate
01:00AM 8.4064 -64.5680 326° Northwest  Level FlightAware Approximate
01:01AM 8.5062 -64.6367 326° Northwest  Level FlightAware Approximate
01:02AM 8.6060 -64.7055 326° Northwest  Level FlightAware Approximate
01:03AM 8.7058 -64.7743 326° Northwest  Level FlightAware Approximate
01:04AM 8.8056 -64.8431 326° Northwest  Level FlightAware Approximate
01:05AM 8.9054 -64.9120 326° Northwest  Level FlightAware Approximate
01:06AM 9.0051 -64.9810 326° Northwest  Level FlightAware Approximate
01:07AM 9.1049 -65.0499 326° Northwest  Level FlightAware Approximate
01:08AM 9.2046 -65.1189 326° Northwest  Level FlightAware Approximate
01:09AM 9.3043 -65.1880 326° Northwest  Level FlightAware Approximate
01:10AM 9.4040 -65.2570 326° Northwest  Level FlightAware Approximate
01:11AM 9.5037 -65.3262 326° Northwest  Level FlightAware Approximate
01:12AM 9.6034 -65.3953 326° Northwest  Level FlightAware Approximate
01:13AM 9.7031 -65.4645 326° Northwest  Level FlightAware Approximate
01:14AM 9.8028 -65.5338 326° Northwest  Level FlightAware Approximate
01:15AM 9.9024 -65.6030 326° Northwest  Level FlightAware Approximate
01:16AM 10.0020 -65.6724 326° Northwest  Level FlightAware Approximate
01:17AM 10.1017 -65.7417 326° Northwest  Level FlightAware Approximate
01:18AM 10.2013 -65.8111 326° Northwest  Level FlightAware Approximate
01:19AM 10.3008 -65.8806 326° Northwest  Level FlightAware Approximate
01:20AM 10.4004 -65.9501 326° Northwest  Level FlightAware Approximate
01:21AM 10.5000 -66.0196 326° Northwest  Level FlightAware Approximate
01:22AM 10.5995 -66.0892 326° Northwest  Level FlightAware Approximate
01:23AM 10.6990 -66.1589 325° Northwest  Level FlightAware Approximate
01:24AM 10.7986 -66.2285 325° Northwest  Level FlightAware Approximate
01:25AM 10.8981 -66.2982 325° Northwest  Level FlightAware Approximate
01:26AM 10.9975 -66.3680 325° Northwest  Level FlightAware Approximate
01:27AM 11.0970 -66.4378 325° Northwest  Level FlightAware Approximate
01:28AM 11.1964 -66.5077 325° Northwest  Level FlightAware Approximate
01:29AM 11.2959 -66.5776 325° Northwest  Level FlightAware Approximate
01:30AM 11.3953 -66.6476 325° Northwest  Level FlightAware Approximate
01:31AM 11.4947 -66.7176 325° Northwest  Level FlightAware Approximate
01:32AM 11.5941 -66.7876 325° Northwest  Level FlightAware Approximate
01:33AM 11.6934 -66.8577 325° Northwest  Level FlightAware Approximate
01:34AM 11.7928 -66.9279 325° Northwest  Level FlightAware Approximate
01:35AM 11.8921 -66.9981 325° Northwest  Level FlightAware Approximate
01:36AM 11.9914 -67.0684 325° Northwest  Level FlightAware Approximate
01:37AM 12.0907 -67.1387 325° Northwest  Level FlightAware Approximate
01:38AM 12.1900 -67.2091 325° Northwest  Level FlightAware Approximate
01:39AM 12.2893 -67.2795 325° Northwest  Level FlightAware Approximate
01:40AM 12.3885 -67.3500 325° Northwest  Level FlightAware Approximate
01:41AM 12.4877 -67.4205 325° Northwest  Level FlightAware Approximate
01:42AM 12.5869 -67.4911 325° Northwest  Level FlightAware Approximate
01:43AM 12.6861 -67.5617 325° Northwest  Level FlightAware Approximate
01:44AM 12.7853 -67.6324 325° Northwest  Level FlightAware Approximate
01:45AM 12.8845 -67.7030 325° Northwest  Level FlightAware Approximate
01:46AM 12.9838 -67.7735 325° Northwest  Level FlightAware Approximate
01:47AM 13.0832 -67.8440 325° Northwest  Level FlightAware Approximate
01:48AM 13.1825 -67.9146 325° Northwest  Level FlightAware Approximate
01:49AM 13.2817 -67.9853 325° Northwest  Level FlightAware Approximate
01:50AM 13.3810 -68.0560 325° Northwest  Level FlightAware Approximate
01:51AM 13.4803 -68.1268 325° Northwest  Level FlightAware Approximate
01:52AM 13.5795 -68.1976 325° Northwest  Level FlightAware Approximate
01:53AM 13.6787 -68.2685 325° Northwest  Level FlightAware Approximate
01:54AM 13.7779 -68.3394 325° Northwest  Level FlightAware Approximate
01:55AM 13.8770 -68.4105 325° Northwest  Level FlightAware Approximate
01:56AM 13.9761 -68.4815 325° Northwest  Level FlightAware Approximate
01:57AM 14.0753 -68.5527 325° Northwest  Level FlightAware Approximate
01:58AM 14.1744 -68.6239 325° Northwest  Level FlightAware Approximate
01:59AM 14.2734 -68.6951 325° Northwest  Level FlightAware Approximate
02:00AM 14.3725 -68.7664 325° Northwest  Level FlightAware Approximate
02:01AM 14.4715 -68.8378 325° Northwest  Level FlightAware Approximate
02:02AM 14.5706 -68.9093 325° Northwest  Level FlightAware Approximate
02:03AM 14.6696 -68.9808 325° Northwest  Level FlightAware Approximate
02:04AM 14.7685 -69.0524 325° Northwest  Level FlightAware Approximate
02:05AM 14.8675 -69.1240 325° Northwest  Level FlightAware Approximate
02:06AM 14.9664 -69.1957 325° Northwest  Level FlightAware Approximate
02:07AM 15.0653 -69.2675 325° Northwest  Level FlightAware Approximate
02:08AM 15.1642 -69.3393 325° Northwest  Level FlightAware Approximate
02:09AM 15.2631 -69.4113 325° Northwest  Level FlightAware Approximate
02:10AM 15.3619 -69.4832 325° Northwest  Level FlightAware Approximate
02:11AM 15.4607 -69.5553 325° Northwest  Level FlightAware Approximate
02:12AM 15.5595 -69.6274 325° Northwest  Level FlightAware Approximate
02:13AM 15.6583 -69.6996 325° Northwest  Level FlightAware Approximate
02:14AM 15.7570 -69.7718 325° Northwest  Level FlightAware Approximate
02:15AM 15.8557 -69.8441 325° Northwest  Level FlightAware Approximate
02:16AM 15.9544 -69.9165 325° Northwest  Level FlightAware Approximate
02:17AM 16.0531 -69.9890 325° Northwest  Level FlightAware Approximate
02:18AM 16.1518 -70.0615 325° Northwest  Level FlightAware Approximate
02:19AM 16.2504 -70.1341 325° Northwest  Level FlightAware Approximate
02:20AM 16.3490 -70.2068 325° Northwest  Level FlightAware Approximate
02:21AM 16.4476 -70.2796 325° Northwest  Level FlightAware Approximate
02:22AM 16.5462 -70.3524 325° Northwest  Level FlightAware Approximate
02:23AM 16.6447 -70.4253 325° Northwest  Level FlightAware Approximate
02:24AM 16.7432 -70.4982 325° Northwest  Level FlightAware Approximate
02:25AM 16.8417 -70.5713 325° Northwest  Level FlightAware Approximate
02:26AM 16.9402 -70.6444 325° Northwest  Level FlightAware Approximate
02:27AM 17.0386 -70.7176 325° Northwest  Level FlightAware Approximate
02:28AM 17.1370 -70.7909 325° Northwest  Level FlightAware Approximate
02:29AM 17.2354 -70.8642 325° Northwest  Level FlightAware Approximate
02:30AM 17.3326 -70.9392 323° Northwest  Level FlightAware Approximate
02:31AM 17.4289 -71.0157 323° Northwest  Level FlightAware Approximate
02:32AM 17.5250 -71.0923 323° Northwest  Level FlightAware Approximate
02:33AM 17.6212 -71.1690 323° Northwest  Level FlightAware Approximate
02:34AM 17.7173 -71.2457 323° Northwest  Level FlightAware Approximate
02:34AM 18.7378 -72.0631 323° Northwest 447 514 36,000  Level Miami Center
02:35AM 17.8134 -71.3226 323° Northwest  Level FlightAware Approximate
02:35AM 18.8339 -72.1431 322° Northwest 431 496 36,000  Level Miami Center
02:36AM 17.9095 -71.3995 323° Northwest  Level FlightAware Approximate
02:36AM 18.9278 -72.2189 323° Northwest 431 496 36,000  Level Miami Center
02:37AM 18.0055 -71.4765 323° Northwest  Level FlightAware Approximate
02:37AM 19.0217 -72.2947 323° Northwest 431 496 36,000  Level Miami Center
02:38AM 18.1015 -71.5536 323° Northwest  Level FlightAware Approximate
02:38AM 19.1111 -72.3683 322° Northwest 424 488 36,000  Level Miami Center
02:39AM 18.1974 -71.6308 323° Northwest  Level FlightAware Approximate
02:39AM 19.2111 -72.4442 324° Northwest 429 494 35,900  Level Miami Center
02:40AM 19.2989 -72.5228 320° Northwest 424 488 36,000  Climbing Miami Center
02:41AM 19.3947 -72.6011 322° Northwest 424 488 36,000  Level Miami Center
02:42AM 19.4886 -72.6772 323° Northwest 429 494 36,000  Level Miami Center
02:43AM 19.5842 -72.7536 323° Northwest 429 494 36,000  Level Miami Center
02:44AM 19.6800 -72.8300 323° Northwest 429 494 36,000 -60 Level Miami Center
02:45AM 19.7694 -72.9069 321° Northwest 424 488 35,900  Descending Miami Center
02:46AM 19.8633 -72.9836 322° Northwest 424 488 36,000  Climbing Miami Center
02:47AM 19.9569 -73.0625 322° Northwest 429 494 36,000  Level Miami Center
02:48AM 20.0483 -73.1394 322° Northwest 429 494 36,000  Level Miami Center
02:49AM 20.1461 -73.2164 324° Northwest 429 494 36,000 480 Level Miami Center
02:50AM 20.2417 -73.2889 325° Northwest 429 494 37,000 960 Climbing Miami Center
02:51AM 20.3392 -73.3594 326° Northwest 429 494 37,900 480 Climbing Miami Center
02:52AM 20.4325 -73.4300 325° Northwest 424 488 38,000  Climbing Miami Center
02:53AM 20.5344 -73.5028 326° Northwest 424 488 38,000 -60 Level Miami Center
02:54AM 20.6278 -73.5736 325° Northwest 424 488 37,900  Descending Miami Center
02:55AM 20.7272 -73.6467 326° Northwest 429 494 38,000  Climbing Miami Center
02:56AM 20.8206 -73.7178 325° Northwest 429 494 38,000  Level Miami Center
02:57AM 20.9244 -73.7953 325° Northwest 434 499 38,000  Level Miami Center
02:58AM 21.0217 -73.8642 327° Northwest 433 498 38,000  Level Miami Center
02:59AM 21.1192 -73.9378 325° Northwest 433 498 38,000  Level Miami Center
03:00AM 21.2144 -74.0092 325° Northwest 428 493 38,000  Level Miami Center
03:01AM 21.3117 -74.0828 325° Northwest 428 493 38,000  Level Miami Center
03:02AM 21.4092 -74.1589 324° Northwest 428 493 38,000  Level Miami Center
03:03AM 21.5064 -74.2283 326° Northwest 428 493 38,000  Level Miami Center
03:04AM 21.6017 -74.3022 324° Northwest 428 493 38,000  Level Miami Center
03:05AM 21.6989 -74.3764 325° Northwest 435 501 38,000  Level Miami Center
03:06AM 21.8006 -74.4617 322° Northwest 430 495 38,000  Level Miami Center
03:07AM 21.8997 -74.5339 326° Northwest 425 489 38,000  Level Miami Center
03:08AM 21.9908 -74.6106 322° Northwest 425 489 38,000  Level Miami Center
03:09AM 22.0900 -74.6828 326° Northwest 425 489 38,000  Level Miami Center
03:10AM 22.1892 -74.7553 326° Northwest 430 495 38,000  Level Miami Center
03:11AM 22.2861 -74.8300 325° Northwest 430 495 38,000  Level Miami Center
03:12AM 22.3833 -74.9003 326° Northwest 430 495 38,000  Level Miami Center
03:13AM 22.4781 -74.9753 324° Northwest 430 495 38,000  Level Miami Center
03:14AM 22.5772 -75.0503 325° Northwest 430 495 38,000  Level Miami Center
03:15AM 22.6742 -75.1256 324° Northwest 430 495 38,000  Level Miami Center
03:16AM 22.7692 -75.1986 325° Northwest 430 495 38,000  Level Miami Center
03:17AM 22.8661 -75.2717 325° Northwest 430 495 38,000  Level Miami Center
03:18AM 22.9628 -75.3450 325° Northwest 430 495 38,000  Level Miami Center
03:19AM 23.0597 -75.4206 324° Northwest 430 495 38,000  Level Miami Center
03:20AM 23.1586 -75.4964 325° Northwest 430 495 38,000  Level Miami Center
03:21AM 23.2533 -75.5722 324° Northwest 430 495 38,000  Level Miami Center
03:22AM 23.3481 -75.6414 326° Northwest 430 495 38,000  Level Miami Center
03:23AM 23.4447 -75.7242 322° Northwest 430 495 38,000  Level Miami Center
03:24AM 23.5414 -75.8050 323° Northwest 438 504 38,000  Level Miami Center
03:25AM 23.6381 -75.8678 329° Northwest 451 519 38,000  Level Miami Center
03:26AM 23.7347 -75.9442 324° Northwest 438 504 38,000  Level Miami Center
03:27AM 23.8292 -76.0183 324° Northwest 427 491 38,000  Level Miami Center
03:28AM 23.9236 -76.0950 323° Northwest 427 491 38,000  Level Miami Center
03:29AM 24.0200 -76.1672 326° Northwest 427 491 38,000  Level Miami Center
03:30AM 24.1144 -76.2442 323° Northwest 427 491 38,000  Level Miami Center
03:31AM 24.2108 -76.3189 325° Northwest 427 491 38,000  Level Miami Center
03:32AM 24.3053 -76.3958 323° Northwest 427 491 38,000  Level Miami Center
03:33AM 24.4014 -76.4686 325° Northwest 427 491 38,000  Level Miami Center
03:34AM 24.5000 -76.5506 323° Northwest 413 475 38,000  Level Miami Center
03:39AM 25.0166 -76.9607 323° Northwest 415 478 38,000  Level FlightAware ADS-B (KMIA)
03:40AM 25.0719 -77.0052 324° Northwest 415 478 38,000  Level FlightAware ADS-B (KMIA)
03:40AM 25.1216 -77.0453 324° Northwest 415 478 38,000  Level FlightAware ADS-B (KMIA)
03:41AM 25.2099 -77.1165 324° Northwest 415 478 38,000  Level FlightAware ADS-B (KMIA)
03:42AM 25.2687 -77.1641 324° Northwest 415 478 38,000  Level FlightAware ADS-B (KMIA)
03:42AM 25.3321 -77.2153 324° Northwest 414 476 38,000  Level FlightAware ADS-B (KMIA)
03:43AM 25.3983 -77.2689 324° Northwest 414 476 38,000  Level FlightAware ADS-B (KMIA)
03:44AM 25.4560 -77.3158 324° Northwest 413 475 38,000  Level FlightAware ADS-B (KMIA)
03:44AM 25.5067 -77.3569 324° Northwest 412 474 38,000  Level FlightAware ADS-B (KMIA)
03:45AM 25.5637 -77.4033 324° Northwest 412 474 38,000  Level FlightAware ADS-B (KMIA)
03:45AM 25.6089 -77.4400 324° Northwest 412 474 38,000  Level FlightAware ADS-B (KMIA)
03:46AM 25.6721 -77.4914 324° Northwest 411 473 38,000  Level FlightAware ADS-B (KMIA)
03:47AM 25.7362 -77.5438 324° Northwest 411 473 38,000  Level FlightAware ADS-B (KMIA)
03:47AM 25.7951 -77.5920 324° Northwest 411 473 38,000  Level FlightAware ADS-B (KMIA)
03:48AM 25.8553 -77.6412 324° Northwest 411 473 38,000  Level FlightAware ADS-B (KMIA)
03:49AM 25.9058 -77.6825 324° Northwest 411 473 38,000  Level FlightAware ADS-B (KMIA)
03:49AM 25.9561 -77.7237 324° Northwest 412 474 38,000  Level FlightAware ADS-B (KMIA)
03:50AM 26.0139 -77.7712 324° Northwest 412 474 38,000  Level FlightAware ADS-B (KMIA)
03:50AM 26.0726 -77.8192 324° Northwest 412 474 38,000  Level FlightAware ADS-B (KMIA)
03:51AM 26.1200 -77.8560 325° Northwest 413 475 38,000  Level FlightAware ADS-B (KMIA)
03:52AM 26.1891 -77.9065 327° Northwest 413 475 38,000  Level FlightAware ADS-B (KMIA)
03:52AM 26.2484 -77.9487 327° Northwest 413 475 38,000  Level FlightAware ADS-B (KMIA)
03:53AM 26.3145 -77.9957 327° Northwest 413 475 38,000  Level FlightAware ADS-B (KMIA)
03:54AM 26.3819 -78.0438 327° Northwest 413 475 38,000  Level FlightAware ADS-B (KMIA)
03:54AM 26.4411 -78.0863 327° Northwest 413 475 38,000  Level FlightAware ADS-B (KMIA)
03:55AM 26.4911 -78.1224 327° Northwest 413 475 38,000  Level FlightAware ADS-B (KMIA)
03:55AM 26.5502 -78.1651 327° Northwest 414 476 38,000  Level FlightAware ADS-B (KMIA)
03:57AM 26.7366 -78.3001 327° Northwest 414 476 38,000  Level FlightAware ADS-B (KMIA)
03:59AM 26.8836 -78.4068 327° Northwest 414 476 38,000  Level FlightAware ADS-B (KMCO)
04:01AM 26.9866 -78.4818 327° Northwest 416 479 38,000  Level FlightAware ADS-B (KMCO)
04:01AM 27.0366 -78.5182 327° Northwest 415 478 38,000  Level FlightAware ADS-B (KMCO)
04:02AM 27.1501 -78.6012 327° Northwest 415 478 38,000  Level FlightAware ADS-B (KMCO)
04:03AM 27.1999 -78.6376 327° Northwest 415 478 38,000  Level FlightAware ADS-B (KMCO)
04:03AM 27.2608 -78.6823 327° Northwest 415 478 38,000  Level FlightAware ADS-B (KMCO)
04:04AM 27.3122 -78.7200 327° Northwest 415 478 38,000  Level FlightAware ADS-B (KMCO)
04:05AM 27.3749 -78.7661 327° Northwest 414 476 38,000  Level FlightAware ADS-B (KMCO)
04:05AM 27.4235 -78.8018 327° Northwest 414 476 38,000  Level FlightAware ADS-B (KMCO)
04:06AM 27.4864 -78.8481 327° Northwest 413 475 38,000  Level FlightAware ADS-B (KMCO)
04:06AM 27.5363 -78.8849 327° Northwest 413 475 38,000  Level FlightAware ADS-B (KMCO)
04:07AM 27.5806 -78.9176 327° Northwest 413 475 38,000  Level FlightAware ADS-B (KMCO)
04:07AM 27.6317 -78.9554 327° Northwest 413 475 38,000  Level FlightAware ADS-B (KMCO)
04:08AM 27.6965 -79.0033 327° Northwest 412 474 38,000  Level FlightAware ADS-B (KMCO)
04:08AM 27.7421 -79.0371 327° Northwest 412 474 38,000  Level FlightAware ADS-B (KMCO)
04:09AM 27.8185 -79.0937 327° Northwest 412 474 38,000  Level FlightAware ADS-B (KMCO)
04:10AM 27.8498 -79.1170 327° Northwest 411 473 38,000  Level FlightAware ADS-B (KMCO)
04:10AM 27.9320 -79.1782 327° Northwest 411 473 38,000  Level FlightAware ADS-B (KMCO)
04:11AM 27.9879 -79.2198 327° Northwest 411 473 38,000  Level FlightAware ADS-B (KMCO)
04:12AM 28.0460 -79.2631 327° Northwest 411 473 38,000  Level FlightAware ADS-B (KMCO)
04:12AM 28.0950 -79.2996 327° Northwest 411 473 38,000  Level FlightAware ADS-B (KMCO)
04:13AM 28.1423 -79.3350 327° Northwest 409 471 38,000  Level FlightAware ADS-B (KMCO)
04:13AM 28.1883 -79.3694 327° Northwest 409 471 38,000  Level FlightAware ADS-B (KMCO)
04:14AM 28.2372 -79.4061 326° Northwest 409 471 38,000  Level FlightAware ADS-B (KMCO)
04:14AM 28.2853 -79.4421 327° Northwest 408 470 38,000  Level FlightAware ADS-B (KMCO)
04:15AM 28.3325 -79.4776 327° Northwest 407 468 38,000  Level FlightAware ADS-B (KMCO)
04:15AM 28.3937 -79.5237 326° Northwest 407 468 38,000  Level FlightAware ADS-B (KMCO)
04:16AM 28.4437 -79.5613 327° Northwest 407 468 38,000  Level FlightAware ADS-B (KMCO)
04:16AM 28.4928 -79.5983 326° Northwest 406 467 38,000  Level FlightAware ADS-B (KMCO)
04:17AM 28.5697 -79.6563 326° Northwest 406 467 38,000  Level FlightAware ADS-B (KMCO)
04:18AM 28.6317 -79.7032 326° Northwest 405 466 38,000  Level FlightAware ADS-B (KMCO)
04:18AM 28.6803 -79.7398 327° Northwest 405 466 38,000  Level FlightAware ADS-B (KMCO)
04:19AM 28.7428 -79.7873 326° Northwest 404 465 38,000  Level FlightAware ADS-B (KMCO)
04:19AM 28.7902 -79.8233 326° Northwest 404 465 38,000  Level FlightAware ADS-B (KMCO)
04:20AM 28.8669 -79.8819 326° Northwest 404 465 38,000  Level FlightAware ADS-B (KMCO)
04:21AM 28.9140 -79.9176 326° Northwest 404 465 38,000  Level FlightAware ADS-B (KMCO)
04:22AM 28.9891 -79.9748 326° Northwest 404 465 38,000  Level FlightAware ADS-B (KMCO)
04:22AM 29.0465 -80.0187 326° Northwest 401 461 38,000  Level FlightAware ADS-B (KMCO)
04:23AM 29.0974 -80.0576 326° Northwest 401 461 38,000  Level FlightAware ADS-B (KMCO)
04:23AM 29.1407 -80.0908 326° Northwest 400 460 38,000  Level FlightAware ADS-B (KMCO)
04:24AM 29.2047 -80.1399 326° Northwest 399 459 38,000  Level FlightAware ADS-B (KMCO)
04:24AM 29.2525 -80.1766 326° Northwest 399 459 38,000  Level FlightAware ADS-B (KMCO)
04:25AM 29.3090 -80.2200 326° Northwest 399 459 38,000  Level FlightAware ADS-B (KMCO)
04:28AM 29.5984 -80.4435 326° Northwest 400 460 38,000  Level FlightAware ADS-B (KMCO)
04:31AM 29.8267 -80.6208 326° Northwest 395 455 38,000  Level FlightAware ADS-B (KMCO)
04:33AM 30.0045 -80.7596 326° Northwest 396 456 38,000  Level FlightAware ADS-B (KMCO)
04:34AM 30.0929 -80.8289 326° Northwest 397 457 38,000  Level FlightAware ADS-B (KMCO)
04:34AM 30.1515 -80.8749 326° Northwest 397 457 38,000  Level FlightAware ADS-B (KMCO)
04:35AM 30.2401 -80.9446 326° Northwest 397 457 38,000  Level FlightAware ADS-B (KMCO)
04:36AM 30.3217 -81.0108 326° Northwest 403 464 38,000  Level Jacksonville Center
04:37AM 30.4144 -81.0811 327° Northwest 403 464 38,000  Level Jacksonville Center
04:38AM 30.5031 -81.1519 325° Northwest 403 464 38,000  Level Jacksonville Center
04:39AM 30.5981 -81.2272 326° Northwest 403 464 38,000  Level Jacksonville Center
04:40AM 30.6886 -81.2983 326° Northwest 403 464 38,000  Level Jacksonville Center
04:41AM 30.7794 -81.3742 324° Northwest 403 464 38,000  Level Jacksonville Center
04:42AM 30.8722 -81.4475 326° Northwest 403 464 38,000  Level Jacksonville Center
04:43AM 30.9628 -81.5214 325° Northwest 403 464 38,000  Level Jacksonville Center
04:44AM 31.0533 -81.5953 325° Northwest 403 464 38,000  Level Jacksonville Center
04:45AM 31.1458 -81.6667 327° Northwest 395 455 38,000  Level Jacksonville Center
04:47AM 31.2750 -81.7697 326° Northwest 401 461 38,000  Level Atlanta Center
04:48AM 31.3639 -81.8431 325° Northwest 406 467 38,000  Level Atlanta Center
04:49AM 31.4572 -81.9211 325° Northwest 406 467 38,000  Level Atlanta Center
04:50AM 31.5461 -81.9944 325° Northwest 406 467 38,000  Level Atlanta Center
04:51AM 31.6389 -82.0681 326° Northwest 401 461 38,000  Level Atlanta Center
04:52AM 31.7300 -82.1417 326° Northwest 401 461 38,000  Level Atlanta Center
04:53AM 31.8228 -82.2156 326° Northwest 401 461 38,000  Level Atlanta Center
04:54AM 31.9033 -82.3019 318° Northwest 395 455 38,000  Level Atlanta Center
04:55AM 31.9778 -82.3911 315° West 390 449 38,000  Level Atlanta Center
04:56AM 32.0561 -82.4828 315° West 390 449 38,000  Level Atlanta Center
04:57AM 32.1283 -82.5772 312° West 390 449 38,000  Level Atlanta Center
04:58AM 32.2064 -82.6692 315° West 396 456 38,000  Level Atlanta Center
04:59AM 32.2847 -82.7639 314° West 396 456 38,000  Level Atlanta Center
05:00AM 32.3586 -82.8536 314° West 396 456 38,000 -720 Level Atlanta Center
05:01AM 32.4347 -82.9436 315° West 396 456 36,600 -2,400 Descending Atlanta Center
05:02AM 32.5128 -83.0389 314° West 396 456 33,300 -3,480 Descending Atlanta Center
05:03AM 32.5908 -83.1389 313° West 401 461 29,700 -3,300 Descending Atlanta Center
05:04AM 32.6686 -83.2344 314° West 401 461 26,800 -2,820 Descending Atlanta Center
05:05AM 32.7464 -83.3300 314° West 401 461 24,100 -2,640 Descending Atlanta Center
05:06AM 32.8222 -83.4233 314° West 395 455 21,600 -2,580 Descending Atlanta Center
05:07AM 32.8956 -83.5144 314° West 395 455 19,000 -2,580 Descending Atlanta Center
05:08AM 32.9689 -83.6056 314° West 395 455 16,500 -2,040 Descending Atlanta Center
05:09AM 33.0403 -83.6969 313° West 383 441 15,000 -780 Descending Atlanta Center
05:10AM 33.1094 -83.7883 312° West 378 435 15,000 -660 Level Atlanta Center
05:11AM 33.1867 -83.8553 324° Northwest 356 410 13,700 -1,560 Descending Atlanta Center
05:12AM 33.2764 -83.8822 346° North 325 374 11,900 -2,100 Descending Atlanta Center
05:13AM 33.3539 -83.9219 337° Northwest 295 339 9,600 -2,100 Descending Atlanta Center
05:14AM 33.4228 -83.9617 334° Northwest 274 315 7,700 -1,980 Descending Atlanta Center
05:15AM 33.4875 -84.0039 331° Northwest 262 302 5,700 -1,740 Descending Atlanta Center
05:16AM 33.5583 -84.0239 347° North 257 296 4,300 -1,140 Descending Atlanta Center
05:17AM 33.6042 -84.0589 328° Northwest 222 255 3,500 -480 Descending Atlanta Center
05:19AM 33.6333 -84.1667 288° West 177 204 3,000 -180 Descending Atlanta TRACON
05:20AM 33.6333 -84.2167 270° West 179 206 3,000  Level Atlanta TRACON
05:21AM 33.6333 -84.2833 270° West 176 203 3,000 -360 Level Atlanta TRACON
05:22AM 33.6333 -84.3333 270° West 148 170 2,300 -720 Descending Atlanta TRACON
05:23AM 33.6333 -84.3833 270° West 129 148 1,600 -720 Descending Atlanta TRACON